Diamond Bluff, Wisconsin
Current Conditions -  °F | °C
As of 7:14 PM on Sunday 23 Nov 2014 (Local Time) from KSYN Reporting Station
Drizzle Drizzle  
Wind Chill: 34°   Ceiling: 3600
Heat Index: 40°   Visibility: 10mi
Dew Point: 37°   Wind: 10mph
Humidity: 87%   Direction: 300°WNW
Pressure: 29.36"   Gusts: NA
Location:  44.6468°N, 92.567°W
Report Text: KSYN 240114Z AUTO 30009KT 10SM DZ SCT012 OVC036 05/03 A2936 RMK AO2 T00450025
Loading
Personal Weather Stations






























Interactive Weather Map New forecast layout! Learn more

10-Day Weather Forecast

Advertisements
Track Severe Weather on mobile